Terminal Aerodrome Forecast
Issued by NWS Memphis, TN

Home | Current Version | Previous Version | Text Only | Print | Product List | Glossary On
Versions: 1 2 3 4 5 6 7 8 9 10 11 12 13 14 15 16 17 18 19 20
582
FTUS44 KMEG 170813 AAA
TAFMKL
TAF AMD
KMKL 170813Z 1708/1806 20011KT P6SM -SHRA BKN020 OVC030
     FM171000 25006KT P6SM -SHRA OVC015
      TEMPO 1710/1714 6SM -RA BR BKN008
     FM171900 26008KT P6SM BKN050
     FM180300 33005KT P6SM OVC100=

USA.gov is the U.S. government's official web portal to all federal, state and local government web resources and services.